sensor_id;sensor_type;location;lat;lon;timestamp;P1;durP1;ratioP1;P2;durP2;ratioP2
68386;SDS011;55338;43.062;25.624;2023-04-03T00:01:09;7.03;;;3.45;;
68386;SDS011;55338;43.062;25.624;2023-04-03T00:03:36;5.20;;;2.20;;
68386;SDS011;55338;43.062;25.624;2023-04-03T00:06:02;7.97;;;2.90;;
68386;SDS011;55338;43.062;25.624;2023-04-03T00:08:28;6.43;;;2.53;;
68386;SDS011;55338;43.062;25.624;2023-04-03T00:10:57;4.88;;;2.20;;
68386;SDS011;55338;43.062;25.624;2023-04-03T00:13:23;6.65;;;2.70;;
68386;SDS011;55338;43.062;25.624;2023-04-03T00:15:50;10.27;;;3.03;;
68386;SDS011;55338;43.062;25.624;2023-04-03T00:18:16;4.75;;;2.20;;
68386;SDS011;55338;43.062;25.624;2023-04-03T00:20:42;6.47;;;2.83;;
68386;SDS011;55338;43.062;25.624;2023-04-03T00:23:08;4.88;;;2.30;;
68386;SDS011;55338;43.062;25.624;2023-04-03T00:25:34;9.00;;;2.42;;
68386;SDS011;55338;43.062;25.624;2023-04-03T00:28:00;8.63;;;2.30;;
68386;SDS011;55338;43.062;25.624;2023-04-03T00:30:26;6.53;;;2.50;;
68386;SDS011;55338;43.062;25.624;2023-04-03T00:32:52;5.88;;;2.40;;
68386;SDS011;55338;43.062;25.624;2023-04-03T00:35:19;4.85;;;2.67;;
68386;SDS011;55338;43.062;25.624;2023-04-03T00:37:46;6.27;;;2.77;;
68386;SDS011;55338;43.062;25.624;2023-04-03T00:40:13;7.95;;;2.22;;
68386;SDS011;55338;43.062;25.624;2023-04-03T00:42:40;5.95;;;2.47;;
68386;SDS011;55338;43.062;25.624;2023-04-03T00:47:37;4.88;;;2.42;;
68386;SDS011;55338;43.062;25.624;2023-04-03T00:50:04;5.07;;;2.47;;
68386;SDS011;55338;43.062;25.624;2023-04-03T00:52:30;6.10;;;2.55;;
68386;SDS011;55338;43.062;25.624;2023-04-03T00:54:57;8.05;;;2.72;;
68386;SDS011;55338;43.062;25.624;2023-04-03T00:57:28;6.65;;;2.65;;
68386;SDS011;55338;43.062;25.624;2023-04-03T00:59:57;4.90;;;2.60;;
68386;SDS011;55338;43.062;25.624;2023-04-03T01:02:28;9.53;;;2.60;;
68386;SDS011;55338;43.062;25.624;2023-04-03T01:04:53;5.22;;;2.25;;
68386;SDS011;55338;43.062;25.624;2023-04-03T01:07:21;4.75;;;2.47;;
68386;SDS011;55338;43.062;25.624;2023-04-03T01:09:50;6.90;;;2.47;;
68386;SDS011;55338;43.062;25.624;2023-04-03T01:12:20;7.25;;;2.35;;
68386;SDS011;55338;43.062;25.624;2023-04-03T01:14:52;6.28;;;2.47;;
68386;SDS011;55338;43.062;25.624;2023-04-03T01:25:21;5.40;;;2.40;;
68386;SDS011;55338;43.062;25.624;2023-04-03T01:27:47;6.35;;;2.50;;
68386;SDS011;55338;43.062;25.624;2023-04-03T01:30:13;4.72;;;2.05;;
68386;SDS011;55338;43.062;25.624;2023-04-03T01:32:41;5.43;;;2.85;;
68386;SDS011;55338;43.062;25.624;2023-04-03T01:35:08;7.78;;;2.58;;
68386;SDS011;55338;43.062;25.624;2023-04-03T01:37:35;6.65;;;2.80;;
68386;SDS011;55338;43.062;25.624;2023-04-03T01:40:01;6.60;;;2.80;;
68386;SDS011;55338;43.062;25.624;2023-04-03T01:42:28;4.10;;;2.20;;
68386;SDS011;55338;43.062;25.624;2023-04-03T01:44:54;5.07;;;2.17;;
68386;SDS011;55338;43.062;25.624;2023-04-03T01:47:20;7.18;;;3.10;;
68386;SDS011;55338;43.062;25.624;2023-04-03T01:49:46;6.40;;;2.70;;
68386;SDS011;55338;43.062;25.624;2023-04-03T01:52:12;7.75;;;3.08;;
68386;SDS011;55338;43.062;25.624;2023-04-03T01:54:38;6.32;;;2.85;;
68386;SDS011;55338;43.062;25.624;2023-04-03T01:57:04;5.07;;;2.57;;
68386;SDS011;55338;43.062;25.624;2023-04-03T01:59:30;7.18;;;2.60;;
68386;SDS011;55338;43.062;25.624;2023-04-03T02:01:55;7.37;;;2.53;;
68386;SDS011;55338;43.062;25.624;2023-04-03T02:04:21;6.18;;;2.78;;
68386;SDS011;55338;43.062;25.624;2023-04-03T02:06:47;5.22;;;2.72;;
68386;SDS011;55338;43.062;25.624;2023-04-03T02:09:13;6.20;;;2.83;;
68386;SDS011;55338;43.062;25.624;2023-04-03T02:11:39;5.93;;;2.85;;
68386;SDS011;55338;43.062;25.624;2023-04-03T02:14:05;6.35;;;2.65;;
68386;SDS011;55338;43.062;25.624;2023-04-03T02:16:31;7.40;;;2.78;;
68386;SDS011;55338;43.062;25.624;2023-04-03T02:18:57;8.38;;;3.63;;
68386;SDS011;55338;43.062;25.624;2023-04-03T02:21:23;6.68;;;2.92;;
68386;SDS011;55338;43.062;25.624;2023-04-03T02:23:48;7.07;;;2.83;;
68386;SDS011;55338;43.062;25.624;2023-04-03T02:26:15;12.02;;;3.50;;
68386;SDS011;55338;43.062;25.624;2023-04-03T02:28:41;6.65;;;3.17;;
68386;SDS011;55338;43.062;25.624;2023-04-03T02:31:08;9.77;;;3.87;;
68386;SDS011;55338;43.062;25.624;2023-04-03T02:33:35;6.97;;;3.13;;
68386;SDS011;55338;43.062;25.624;2023-04-03T02:36:02;7.57;;;3.45;;
68386;SDS011;55338;43.062;25.624;2023-04-03T02:38:32;8.65;;;3.45;;
68386;SDS011;55338;43.062;25.624;2023-04-03T02:41:16;9.85;;;3.85;;
68386;SDS011;55338;43.062;25.624;2023-04-03T02:43:42;7.10;;;3.40;;
68386;SDS011;55338;43.062;25.624;2023-04-03T02:46:08;10.27;;;3.40;;
68386;SDS011;55338;43.062;25.624;2023-04-03T02:48:34;6.10;;;3.10;;
68386;SDS011;55338;43.062;25.624;2023-04-03T02:51:00;6.07;;;3.38;;
68386;SDS011;55338;43.062;25.624;2023-04-03T02:53:26;10.05;;;3.70;;
68386;SDS011;55338;43.062;25.624;2023-04-03T02:55:52;9.32;;;4.25;;
68386;SDS011;55338;43.062;25.624;2023-04-03T02:58:17;7.93;;;3.60;;
68386;SDS011;55338;43.062;25.624;2023-04-03T03:00:43;8.23;;;3.90;;
68386;SDS011;55338;43.062;25.624;2023-04-03T03:03:09;10.45;;;4.03;;
68386;SDS011;55338;43.062;25.624;2023-04-03T03:05:35;7.82;;;3.75;;
68386;SDS011;55338;43.062;25.624;2023-04-03T03:08:01;11.03;;;4.30;;
68386;SDS011;55338;43.062;25.624;2023-04-03T03:10:27;9.95;;;3.55;;
68386;SDS011;55338;43.062;25.624;2023-04-03T03:12:52;7.32;;;3.88;;
68386;SDS011;55338;43.062;25.624;2023-04-03T03:15:18;12.23;;;4.30;;
68386;SDS011;55338;43.062;25.624;2023-04-03T03:17:44;9.35;;;4.15;;
68386;SDS011;55338;43.062;25.624;2023-04-03T03:20:10;11.48;;;4.45;;
68386;SDS011;55338;43.062;25.624;2023-04-03T03:22:37;7.95;;;4.00;;
68386;SDS011;55338;43.062;25.624;2023-04-03T03:25:03;9.82;;;4.93;;
68386;SDS011;55338;43.062;25.624;2023-04-03T03:27:30;12.43;;;5.00;;
68386;SDS011;55338;43.062;25.624;2023-04-03T03:29:55;10.48;;;4.30;;
68386;SDS011;55338;43.062;25.624;2023-04-03T03:32:21;8.00;;;4.40;;
68386;SDS011;55338;43.062;25.624;2023-04-03T03:34:47;11.05;;;5.32;;
68386;SDS011;55338;43.062;25.624;2023-04-03T03:37:13;16.33;;;4.77;;
68386;SDS011;55338;43.062;25.624;2023-04-03T03:39:38;11.50;;;4.25;;
68386;SDS011;55338;43.062;25.624;2023-04-03T03:42:04;11.33;;;4.37;;
68386;SDS011;55338;43.062;25.624;2023-04-03T03:44:30;13.50;;;4.53;;
68386;SDS011;55338;43.062;25.624;2023-04-03T03:46:55;9.47;;;4.30;;
68386;SDS011;55338;43.062;25.624;2023-04-03T03:49:21;11.45;;;4.20;;
68386;SDS011;55338;43.062;25.624;2023-04-03T03:51:48;9.77;;;4.43;;
68386;SDS011;55338;43.062;25.624;2023-04-03T03:54:15;13.70;;;4.80;;
68386;SDS011;55338;43.062;25.624;2023-04-03T03:56:41;9.63;;;4.70;;
68386;SDS011;55338;43.062;25.624;2023-04-03T03:59:07;9.43;;;4.67;;
68386;SDS011;55338;43.062;25.624;2023-04-03T04:01:33;9.32;;;4.63;;
68386;SDS011;55338;43.062;25.624;2023-04-03T04:03:58;8.63;;;4.20;;
68386;SDS011;55338;43.062;25.624;2023-04-03T04:06:24;15.65;;;5.15;;
68386;SDS011;55338;43.062;25.624;2023-04-03T04:08:50;11.43;;;4.70;;
68386;SDS011;55338;43.062;25.624;2023-04-03T04:11:15;12.43;;;4.78;;
68386;SDS011;55338;43.062;25.624;2023-04-03T04:13:41;10.48;;;4.55;;
68386;SDS011;55338;43.062;25.624;2023-04-03T04:16:07;15.57;;;5.00;;
68386;SDS011;55338;43.062;25.624;2023-04-03T04:18:33;16.88;;;5.03;;
68386;SDS011;55338;43.062;25.624;2023-04-03T04:20:59;12.40;;;5.10;;
68386;SDS011;55338;43.062;25.624;2023-04-03T04:23:25;11.65;;;5.15;;
68386;SDS011;55338;43.062;25.624;2023-04-03T04:25:51;10.45;;;5.05;;
68386;SDS011;55338;43.062;25.624;2023-04-03T04:28:17;9.53;;;4.60;;
68386;SDS011;55338;43.062;25.624;2023-04-03T04:30:43;12.52;;;5.15;;
68386;SDS011;55338;43.062;25.624;2023-04-03T04:33:10;12.60;;;5.28;;
68386;SDS011;55338;43.062;25.624;2023-04-03T04:35:36;11.48;;;5.38;;
68386;SDS011;55338;43.062;25.624;2023-04-03T04:38:02;14.77;;;5.93;;
68386;SDS011;55338;43.062;25.624;2023-04-03T04:40:28;14.10;;;4.97;;
68386;SDS011;55338;43.062;25.624;2023-04-03T04:42:53;12.48;;;4.70;;
68386;SDS011;55338;43.062;25.624;2023-04-03T04:45:22;11.70;;;4.73;;
68386;SDS011;55338;43.062;25.624;2023-04-03T04:47:48;13.15;;;5.18;;
68386;SDS011;55338;43.062;25.624;2023-04-03T04:50:16;11.68;;;5.35;;
68386;SDS011;55338;43.062;25.624;2023-04-03T04:52:45;18.15;;;5.22;;
68386;SDS011;55338;43.062;25.624;2023-04-03T04:55:11;9.75;;;5.07;;
68386;SDS011;55338;43.062;25.624;2023-04-03T04:57:36;9.40;;;4.60;;
68386;SDS011;55338;43.062;25.624;2023-04-03T05:00:04;14.95;;;5.35;;
68386;SDS011;55338;43.062;25.624;2023-04-03T05:02:30;12.63;;;5.53;;
68386;SDS011;55338;43.062;25.624;2023-04-03T05:04:56;13.48;;;4.93;;
68386;SDS011;55338;43.062;25.624;2023-04-03T05:07:22;13.80;;;5.63;;
68386;SDS011;55338;43.062;25.624;2023-04-03T05:09:48;10.15;;;4.68;;
68386;SDS011;55338;43.062;25.624;2023-04-03T05:12:13;15.90;;;5.20;;
68386;SDS011;55338;43.062;25.624;2023-04-03T05:14:39;11.27;;;4.83;;
68386;SDS011;55338;43.062;25.624;2023-04-03T05:17:05;28.27;;;5.18;;
68386;SDS011;55338;43.062;25.624;2023-04-03T05:19:30;12.47;;;4.90;;
68386;SDS011;55338;43.062;25.624;2023-04-03T05:21:56;12.85;;;4.93;;
68386;SDS011;55338;43.062;25.624;2023-04-03T05:24:22;9.10;;;4.30;;
68386;SDS011;55338;43.062;25.624;2023-04-03T05:26:47;10.73;;;4.32;;
68386;SDS011;55338;43.062;25.624;2023-04-03T05:29:13;10.07;;;4.37;;
68386;SDS011;55338;43.062;25.624;2023-04-03T05:31:39;10.98;;;4.25;;
68386;SDS011;55338;43.062;25.624;2023-04-03T05:34:05;8.45;;;3.92;;
68386;SDS011;55338;43.062;25.624;2023-04-03T05:36:31;7.55;;;3.92;;
68386;SDS011;55338;43.062;25.624;2023-04-03T05:38:57;9.48;;;3.85;;
68386;SDS011;55338;43.062;25.624;2023-04-03T05:41:22;12.10;;;4.07;;
68386;SDS011;55338;43.062;25.624;2023-04-03T05:43:48;9.27;;;4.13;;
68386;SDS011;55338;43.062;25.624;2023-04-03T05:46:15;9.68;;;3.88;;
68386;SDS011;55338;43.062;25.624;2023-04-03T05:48:43;17.60;;;4.10;;
68386;SDS011;55338;43.062;25.624;2023-04-03T05:51:19;12.35;;;4.05;;
68386;SDS011;55338;43.062;25.624;2023-04-03T05:53:56;11.80;;;4.82;;
68386;SDS011;55338;43.062;25.624;2023-04-03T05:56:28;11.18;;;3.85;;
68386;SDS011;55338;43.062;25.624;2023-04-03T05:58:54;22.40;;;4.03;;
68386;SDS011;55338;43.062;25.624;2023-04-03T06:01:20;7.47;;;3.75;;
68386;SDS011;55338;43.062;25.624;2023-04-03T06:03:46;12.35;;;3.63;;
68386;SDS011;55338;43.062;25.624;2023-04-03T06:06:13;8.10;;;3.43;;
68386;SDS011;55338;43.062;25.624;2023-04-03T06:08:39;8.27;;;3.83;;
68386;SDS011;55338;43.062;25.624;2023-04-03T06:11:05;10.70;;;4.10;;
68386;SDS011;55338;43.062;25.624;2023-04-03T06:13:31;12.95;;;4.10;;
68386;SDS011;55338;43.062;25.624;2023-04-03T06:15:58;9.13;;;3.33;;
68386;SDS011;55338;43.062;25.624;2023-04-03T06:18:24;10.15;;;3.28;;
68386;SDS011;55338;43.062;25.624;2023-04-03T06:20:49;8.13;;;4.53;;
68386;SDS011;55338;43.062;25.624;2023-04-03T06:23:15;14.33;;;5.07;;
68386;SDS011;55338;43.062;25.624;2023-04-03T06:25:41;12.02;;;4.55;;
68386;SDS011;55338;43.062;25.624;2023-04-03T06:28:08;9.25;;;4.28;;
68386;SDS011;55338;43.062;25.624;2023-04-03T06:30:35;8.68;;;4.50;;
68386;SDS011;55338;43.062;25.624;2023-04-03T06:33:02;7.47;;;4.35;;
68386;SDS011;55338;43.062;25.624;2023-04-03T06:35:28;8.65;;;4.53;;
68386;SDS011;55338;43.062;25.624;2023-04-03T06:37:55;14.10;;;6.05;;
68386;SDS011;55338;43.062;25.624;2023-04-03T06:40:23;9.23;;;4.70;;
68386;SDS011;55338;43.062;25.624;2023-04-03T06:42:51;11.52;;;4.05;;
68386;SDS011;55338;43.062;25.624;2023-04-03T06:45:17;11.80;;;3.72;;
68386;SDS011;55338;43.062;25.624;2023-04-03T06:47:42;9.00;;;4.32;;
68386;SDS011;55338;43.062;25.624;2023-04-03T06:50:10;6.95;;;4.30;;
68386;SDS011;55338;43.062;25.624;2023-04-03T06:52:36;9.90;;;4.35;;
68386;SDS011;55338;43.062;25.624;2023-04-03T06:55:03;10.75;;;3.83;;
68386;SDS011;55338;43.062;25.624;2023-04-03T06:57:29;12.73;;;4.20;;
68386;SDS011;55338;43.062;25.624;2023-04-03T06:59:55;10.03;;;3.70;;
68386;SDS011;55338;43.062;25.624;2023-04-03T07:02:22;10.00;;;4.10;;
68386;SDS011;55338;43.062;25.624;2023-04-03T07:04:48;10.20;;;3.72;;
68386;SDS011;55338;43.062;25.624;2023-04-03T07:07:14;11.48;;;4.18;;
68386;SDS011;55338;43.062;25.624;2023-04-03T07:09:40;10.27;;;4.43;;
68386;SDS011;55338;43.062;25.624;2023-04-03T07:12:07;11.65;;;4.47;;
68386;SDS011;55338;43.062;25.624;2023-04-03T07:14:33;16.98;;;5.10;;
68386;SDS011;55338;43.062;25.624;2023-04-03T07:16:58;11.37;;;4.43;;
68386;SDS011;55338;43.062;25.624;2023-04-03T07:19:24;13.88;;;4.80;;
68386;SDS011;55338;43.062;25.624;2023-04-03T07:21:53;11.20;;;4.10;;
68386;SDS011;55338;43.062;25.624;2023-04-03T07:24:21;10.27;;;4.05;;
68386;SDS011;55338;43.062;25.624;2023-04-03T07:26:50;10.48;;;4.13;;
68386;SDS011;55338;43.062;25.624;2023-04-03T07:29:17;9.68;;;4.10;;
68386;SDS011;55338;43.062;25.624;2023-04-03T07:31:43;12.18;;;4.90;;
68386;SDS011;55338;43.062;25.624;2023-04-03T07:34:12;12.10;;;4.63;;
68386;SDS011;55338;43.062;25.624;2023-04-03T07:36:38;12.38;;;4.57;;
68386;SDS011;55338;43.062;25.624;2023-04-03T07:39:04;8.63;;;4.40;;
68386;SDS011;55338;43.062;25.624;2023-04-03T07:41:32;9.80;;;3.83;;
68386;SDS011;55338;43.062;25.624;2023-04-03T07:43:57;10.30;;;4.87;;
68386;SDS011;55338;43.062;25.624;2023-04-03T07:46:23;11.60;;;4.20;;
68386;SDS011;55338;43.062;25.624;2023-04-03T07:48:49;7.50;;;4.03;;
68386;SDS011;55338;43.062;25.624;2023-04-03T07:51:15;7.45;;;3.78;;
68386;SDS011;55338;43.062;25.624;2023-04-03T07:53:41;7.32;;;3.67;;
68386;SDS011;55338;43.062;25.624;2023-04-03T07:56:07;10.13;;;4.40;;
68386;SDS011;55338;43.062;25.624;2023-04-03T07:58:34;11.63;;;7.15;;
68386;SDS011;55338;43.062;25.624;2023-04-03T08:01:01;20.80;;;9.73;;
68386;SDS011;55338;43.062;25.624;2023-04-03T08:03:26;19.02;;;11.15;;
68386;SDS011;55338;43.062;25.624;2023-04-03T08:05:52;16.98;;;9.52;;
68386;SDS011;55338;43.062;25.624;2023-04-03T08:08:20;6.40;;;3.50;;
68386;SDS011;55338;43.062;25.624;2023-04-03T08:10:48;8.80;;;4.97;;
68386;SDS011;55338;43.062;25.624;2023-04-03T08:13:15;7.10;;;4.38;;
68386;SDS011;55338;43.062;25.624;2023-04-03T08:15:41;7.05;;;4.20;;
68386;SDS011;55338;43.062;25.624;2023-04-03T08:18:07;5.80;;;3.57;;
68386;SDS011;55338;43.062;25.624;2023-04-03T08:20:33;6.38;;;3.58;;
68386;SDS011;55338;43.062;25.624;2023-04-03T08:22:58;5.07;;;3.40;;
68386;SDS011;55338;43.062;25.624;2023-04-03T08:25:24;4.15;;;2.40;;
68386;SDS011;55338;43.062;25.624;2023-04-03T08:27:51;5.75;;;3.28;;
68386;SDS011;55338;43.062;25.624;2023-04-03T08:30:17;7.35;;;3.97;;
68386;SDS011;55338;43.062;25.624;2023-04-03T08:32:42;4.43;;;2.47;;
68386;SDS011;55338;43.062;25.624;2023-04-03T08:35:09;5.63;;;3.10;;
68386;SDS011;55338;43.062;25.624;2023-04-03T08:37:36;4.38;;;2.35;;
68386;SDS011;55338;43.062;25.624;2023-04-03T08:40:04;4.70;;;2.70;;
68386;SDS011;55338;43.062;25.624;2023-04-03T08:45:41;4.47;;;2.60;;
68386;SDS011;55338;43.062;25.624;2023-04-03T08:50:56;3.90;;;2.10;;
68386;SDS011;55338;43.062;25.624;2023-04-03T08:53:27;4.30;;;2.35;;
68386;SDS011;55338;43.062;25.624;2023-04-03T08:55:57;4.07;;;2.30;;
68386;SDS011;55338;43.062;25.624;2023-04-03T08:58:28;4.10;;;2.10;;
68386;SDS011;55338;43.062;25.624;2023-04-03T09:03:31;4.40;;;2.20;;
68386;SDS011;55338;43.062;25.624;2023-04-03T09:06:28;4.72;;;2.00;;
68386;SDS011;55338;43.062;25.624;2023-04-03T09:11:58;3.67;;;1.60;;
68386;SDS011;55338;43.062;25.624;2023-04-03T09:17:03;3.47;;;1.40;;
68386;SDS011;55338;43.062;25.624;2023-04-03T09:19:40;4.40;;;1.60;;
68386;SDS011;55338;43.062;25.624;2023-04-03T09:24:38;3.30;;;1.52;;
68386;SDS011;55338;43.062;25.624;2023-04-03T09:27:05;3.40;;;1.33;;
68386;SDS011;55338;43.062;25.624;2023-04-03T09:29:36;3.10;;;1.38;;
68386;SDS011;55338;43.062;25.624;2023-04-03T09:32:28;3.45;;;1.40;;
68386;SDS011;55338;43.062;25.624;2023-04-03T09:34:57;3.03;;;1.20;;
68386;SDS011;55338;43.062;25.624;2023-04-03T09:37:44;3.60;;;1.40;;
68386;SDS011;55338;43.062;25.624;2023-04-03T09:40:45;2.93;;;1.30;;
68386;SDS011;55338;43.062;25.624;2023-04-03T09:45:43;3.40;;;1.35;;
68386;SDS011;55338;43.062;25.624;2023-04-03T09:50:58;3.78;;;1.65;;
68386;SDS011;55338;43.062;25.624;2023-04-03T09:56:02;4.55;;;1.80;;
68386;SDS011;55338;43.062;25.624;2023-04-03T09:58:44;3.75;;;1.70;;
68386;SDS011;55338;43.062;25.624;2023-04-03T10:06:37;3.20;;;1.60;;
68386;SDS011;55338;43.062;25.624;2023-04-03T10:09:12;4.13;;;1.80;;
68386;SDS011;55338;43.062;25.624;2023-04-03T10:11:57;4.90;;;1.83;;
68386;SDS011;55338;43.062;25.624;2023-04-03T10:14:26;5.60;;;1.92;;
68386;SDS011;55338;43.062;25.624;2023-04-03T10:17:02;3.20;;;1.58;;
68386;SDS011;55338;43.062;25.624;2023-04-03T10:19:47;4.17;;;1.60;;
68386;SDS011;55338;43.062;25.624;2023-04-03T10:22:22;3.00;;;1.50;;
68386;SDS011;55338;43.062;25.624;2023-04-03T10:28:12;5.38;;;1.80;;
68386;SDS011;55338;43.062;25.624;2023-04-03T10:33:53;4.50;;;1.70;;
68386;SDS011;55338;43.062;25.624;2023-04-03T10:39:39;3.65;;;1.40;;
68386;SDS011;55338;43.062;25.624;2023-04-03T10:53:31;6.28;;;1.60;;
68386;SDS011;55338;43.062;25.624;2023-04-03T10:59:02;3.10;;;1.35;;
68386;SDS011;55338;43.062;25.624;2023-04-03T11:01:33;2.73;;;1.10;;
68386;SDS011;55338;43.062;25.624;2023-04-03T11:04:00;3.90;;;1.10;;
68386;SDS011;55338;43.062;25.624;2023-04-03T11:06:36;5.22;;;1.30;;
68386;SDS011;55338;43.062;25.624;2023-04-03T11:11:44;3.17;;;1.00;;
68386;SDS011;55338;43.062;25.624;2023-04-03T11:14:15;2.30;;;0.90;;
68386;SDS011;55338;43.062;25.624;2023-04-03T11:22:40;2.60;;;0.93;;
68386;SDS011;55338;43.062;25.624;2023-04-03T11:25:19;4.50;;;0.80;;
68386;SDS011;55338;43.062;25.624;2023-04-03T11:35:30;2.33;;;0.70;;
68386;SDS011;55338;43.062;25.624;2023-04-03T11:37:57;1.98;;;0.60;;
68386;SDS011;55338;43.062;25.624;2023-04-03T11:40:35;3.67;;;0.75;;
68386;SDS011;55338;43.062;25.624;2023-04-03T11:43:05;1.92;;;0.63;;
68386;SDS011;55338;43.062;25.624;2023-04-03T11:50:47;2.25;;;1.02;;
68386;SDS011;55338;43.062;25.624;2023-04-03T11:58:22;2.33;;;0.93;;
68386;SDS011;55338;43.062;25.624;2023-04-03T12:01:02;2.30;;;0.90;;
68386;SDS011;55338;43.062;25.624;2023-04-03T12:08:52;2.40;;;0.82;;
68386;SDS011;55338;43.062;25.624;2023-04-03T12:11:23;2.17;;;0.70;;
68386;SDS011;55338;43.062;25.624;2023-04-03T12:21:15;2.00;;;0.55;;
68386;SDS011;55338;43.062;25.624;2023-04-03T12:26:28;4.25;;;0.90;;
68386;SDS011;55338;43.062;25.624;2023-04-03T12:28:55;2.38;;;0.60;;
68386;SDS011;55338;43.062;25.624;2023-04-03T12:31:22;2.07;;;0.77;;
68386;SDS011;55338;43.062;25.624;2023-04-03T12:34:00;2.22;;;0.70;;
68386;SDS011;55338;43.062;25.624;2023-04-03T12:39:10;2.55;;;1.08;;
68386;SDS011;55338;43.062;25.624;2023-04-03T12:41:42;3.78;;;0.73;;
68386;SDS011;55338;43.062;25.624;2023-04-03T12:46:52;2.22;;;0.70;;
68386;SDS011;55338;43.062;25.624;2023-04-03T12:51:56;3.45;;;0.75;;
68386;SDS011;55338;43.062;25.624;2023-04-03T12:54:23;2.67;;;0.80;;
68386;SDS011;55338;43.062;25.624;2023-04-03T12:59:46;2.80;;;0.82;;
68386;SDS011;55338;43.062;25.624;2023-04-03T13:02:23;3.30;;;1.00;;
68386;SDS011;55338;43.062;25.624;2023-04-03T13:04:52;3.60;;;0.90;;
68386;SDS011;55338;43.062;25.624;2023-04-03T13:07:24;5.10;;;0.98;;
68386;SDS011;55338;43.062;25.624;2023-04-03T13:09:57;2.47;;;0.90;;
68386;SDS011;55338;43.062;25.624;2023-04-03T13:12:24;6.72;;;0.70;;
68386;SDS011;55338;43.062;25.624;2023-04-03T13:14:55;2.40;;;0.90;;
68386;SDS011;55338;43.062;25.624;2023-04-03T13:17:24;2.10;;;0.70;;
68386;SDS011;55338;43.062;25.624;2023-04-03T13:19:50;2.40;;;0.80;;
68386;SDS011;55338;43.062;25.624;2023-04-03T13:25:21;2.22;;;0.60;;
68386;SDS011;55338;43.062;25.624;2023-04-03T13:27:49;3.03;;;0.60;;
68386;SDS011;55338;43.062;25.624;2023-04-03T13:30:20;2.88;;;0.88;;
68386;SDS011;55338;43.062;25.624;2023-04-03T13:32:53;2.42;;;0.70;;
68386;SDS011;55338;43.062;25.624;2023-04-03T13:35:24;2.30;;;0.80;;
68386;SDS011;55338;43.062;25.624;2023-04-03T13:37:55;2.30;;;0.75;;
68386;SDS011;55338;43.062;25.624;2023-04-03T13:40:23;2.35;;;0.90;;
68386;SDS011;55338;43.062;25.624;2023-04-03T13:43:03;2.83;;;1.00;;
68386;SDS011;55338;43.062;25.624;2023-04-03T13:45:42;2.88;;;0.70;;
68386;SDS011;55338;43.062;25.624;2023-04-03T13:48:23;2.23;;;0.80;;
68386;SDS011;55338;43.062;25.624;2023-04-03T13:50:54;2.05;;;0.73;;
68386;SDS011;55338;43.062;25.624;2023-04-03T13:53:30;2.08;;;0.90;;
68386;SDS011;55338;43.062;25.624;2023-04-03T13:58:30;2.10;;;0.82;;
68386;SDS011;55338;43.062;25.624;2023-04-03T14:01:09;2.70;;;1.00;;
68386;SDS011;55338;43.062;25.624;2023-04-03T14:06:17;3.45;;;0.80;;
68386;SDS011;55338;43.062;25.624;2023-04-03T14:08:43;3.97;;;0.88;;
68386;SDS011;55338;43.062;25.624;2023-04-03T14:11:29;2.88;;;0.95;;
68386;SDS011;55338;43.062;25.624;2023-04-03T14:13:57;6.10;;;0.95;;
68386;SDS011;55338;43.062;25.624;2023-04-03T14:16:29;2.53;;;0.95;;
68386;SDS011;55338;43.062;25.624;2023-04-03T14:18:57;2.70;;;1.10;;
68386;SDS011;55338;43.062;25.624;2023-04-03T14:21:23;3.07;;;1.20;;
68386;SDS011;55338;43.062;25.624;2023-04-03T14:23:49;4.05;;;1.02;;
68386;SDS011;55338;43.062;25.624;2023-04-03T14:26:19;3.05;;;1.20;;
68386;SDS011;55338;43.062;25.624;2023-04-03T14:28:47;2.53;;;1.23;;
68386;SDS011;55338;43.062;25.624;2023-04-03T14:31:16;2.50;;;1.07;;
68386;SDS011;55338;43.062;25.624;2023-04-03T14:33:43;3.03;;;1.25;;
68386;SDS011;55338;43.062;25.624;2023-04-03T14:36:14;2.92;;;1.35;;
68386;SDS011;55338;43.062;25.624;2023-04-03T14:38:45;2.75;;;1.00;;
68386;SDS011;55338;43.062;25.624;2023-04-03T14:41:12;3.22;;;1.10;;
68386;SDS011;55338;43.062;25.624;2023-04-03T14:43:41;2.20;;;1.00;;
68386;SDS011;55338;43.062;25.624;2023-04-03T14:46:14;2.85;;;1.10;;
68386;SDS011;55338;43.062;25.624;2023-04-03T14:48:43;3.35;;;1.15;;
68386;SDS011;55338;43.062;25.624;2023-04-03T14:51:10;3.30;;;1.20;;
68386;SDS011;55338;43.062;25.624;2023-04-03T14:53:37;2.95;;;1.40;;
68386;SDS011;55338;43.062;25.624;2023-04-03T14:56:08;2.90;;;1.25;;
68386;SDS011;55338;43.062;25.624;2023-04-03T14:58:40;2.90;;;1.40;;
68386;SDS011;55338;43.062;25.624;2023-04-03T15:01:08;3.20;;;1.48;;
68386;SDS011;55338;43.062;25.624;2023-04-03T15:03:36;3.60;;;1.63;;
68386;SDS011;55338;43.062;25.624;2023-04-03T15:06:02;2.77;;;1.20;;
68386;SDS011;55338;43.062;25.624;2023-04-03T15:08:28;3.72;;;1.08;;
68386;SDS011;55338;43.062;25.624;2023-04-03T15:10:55;3.17;;;1.33;;
68386;SDS011;55338;43.062;25.624;2023-04-03T15:13:21;2.80;;;1.40;;
68386;SDS011;55338;43.062;25.624;2023-04-03T15:15:48;8.50;;;2.13;;
68386;SDS011;55338;43.062;25.624;2023-04-03T15:18:19;4.80;;;2.15;;
68386;SDS011;55338;43.062;25.624;2023-04-03T15:20:47;4.15;;;2.20;;
68386;SDS011;55338;43.062;25.624;2023-04-03T15:23:14;4.78;;;1.95;;
68386;SDS011;55338;43.062;25.624;2023-04-03T15:25:42;3.05;;;1.45;;
68386;SDS011;55338;43.062;25.624;2023-04-03T15:28:10;5.65;;;2.10;;
68386;SDS011;55338;43.062;25.624;2023-04-03T15:30:43;3.83;;;1.95;;
68386;SDS011;55338;43.062;25.624;2023-04-03T15:33:08;4.18;;;1.85;;
68386;SDS011;55338;43.062;25.624;2023-04-03T15:35:34;4.25;;;1.80;;
68386;SDS011;55338;43.062;25.624;2023-04-03T15:38:00;3.43;;;1.93;;
68386;SDS011;55338;43.062;25.624;2023-04-03T15:40:26;3.85;;;1.90;;
68386;SDS011;55338;43.062;25.624;2023-04-03T15:42:52;3.35;;;1.38;;
68386;SDS011;55338;43.062;25.624;2023-04-03T15:45:18;3.47;;;1.73;;
68386;SDS011;55338;43.062;25.624;2023-04-03T15:47:44;5.85;;;1.70;;
68386;SDS011;55338;43.062;25.624;2023-04-03T15:50:10;4.73;;;1.83;;
68386;SDS011;55338;43.062;25.624;2023-04-03T15:52:36;3.38;;;1.38;;
68386;SDS011;55338;43.062;25.624;2023-04-03T15:55:02;3.40;;;1.75;;
68386;SDS011;55338;43.062;25.624;2023-04-03T15:57:28;5.13;;;1.80;;
68386;SDS011;55338;43.062;25.624;2023-04-03T15:59:54;2.90;;;1.50;;
68386;SDS011;55338;43.062;25.624;2023-04-03T16:02:21;4.40;;;1.70;;
68386;SDS011;55338;43.062;25.624;2023-04-03T16:04:47;3.47;;;1.60;;
68386;SDS011;55338;43.062;25.624;2023-04-03T16:07:13;5.20;;;2.13;;
68386;SDS011;55338;43.062;25.624;2023-04-03T16:09:39;3.45;;;1.77;;
68386;SDS011;55338;43.062;25.624;2023-04-03T16:12:05;3.60;;;1.95;;
68386;SDS011;55338;43.062;25.624;2023-04-03T16:14:31;3.85;;;2.10;;
68386;SDS011;55338;43.062;25.624;2023-04-03T16:16:58;3.70;;;2.00;;
68386;SDS011;55338;43.062;25.624;2023-04-03T16:19:25;5.45;;;2.50;;
68386;SDS011;55338;43.062;25.624;2023-04-03T16:21:50;5.68;;;2.60;;
68386;SDS011;55338;43.062;25.624;2023-04-03T16:24:17;4.70;;;2.50;;
68386;SDS011;55338;43.062;25.624;2023-04-03T16:26:43;6.87;;;2.90;;
68386;SDS011;55338;43.062;25.624;2023-04-03T16:29:09;6.82;;;3.33;;
68386;SDS011;55338;43.062;25.624;2023-04-03T16:31:35;5.20;;;2.40;;
68386;SDS011;55338;43.062;25.624;2023-04-03T16:34:00;5.50;;;2.70;;
68386;SDS011;55338;43.062;25.624;2023-04-03T16:36:26;4.25;;;2.42;;
68386;SDS011;55338;43.062;25.624;2023-04-03T16:38:52;5.78;;;2.78;;
68386;SDS011;55338;43.062;25.624;2023-04-03T16:41:18;4.13;;;2.38;;